createdAt,value
2023-02-12T00:03:53.416Z,89.30
2023-02-12T00:08:57.690Z,83.30
2023-02-12T00:14:02.153Z,87.90
2023-02-12T00:19:04.242Z,82.70
2023-02-12T00:24:06.494Z,87.50
2023-02-12T00:29:10.032Z,88.20
2023-02-12T00:34:12.628Z,90.10
2023-02-12T00:39:16.303Z,89.90
2023-02-12T00:44:18.430Z,90.50
2023-02-12T00:49:20.458Z,91.30
2023-02-12T00:54:22.564Z,92.10
2023-02-12T00:59:26.359Z,91.40
2023-02-12T01:04:28.570Z,91.30
2023-02-12T01:09:30.665Z,91.90
2023-02-12T01:14:33.177Z,92.10
2023-02-12T01:19:35.237Z,92.10
2023-02-12T01:24:37.370Z,92.20
2023-02-12T01:29:39.910Z,92.60
2023-02-12T01:34:42.334Z,92.70
2023-02-12T01:39:44.724Z,93.40
2023-02-12T01:45:14.274Z,92.70
2023-02-12T01:50:21.205Z,93.00
2023-02-12T01:55:24.797Z,93.20
2023-02-12T02:00:27.051Z,93.50
2023-02-12T02:05:38.126Z,96.70
2023-02-12T02:10:40.626Z,93.00
2023-02-12T02:15:50.057Z,94.10
2023-02-12T02:21:23.106Z,93.50
2023-02-12T02:27:01.956Z,93.50
2023-02-12T02:32:27.354Z,92.10
2023-02-12T02:37:40.702Z,91.80
2023-02-12T02:42:49.280Z,95.80
2023-02-12T02:48:17.234Z,92.40
2023-02-12T02:53:28.005Z,97.60
2023-02-12T02:58:41.881Z,91.90
2023-02-12T03:04:08.949Z,91.50
2023-02-12T03:09:38.070Z,92.30
2023-02-12T03:14:49.060Z,92.50
2023-02-12T03:20:00.321Z,94.40
2023-02-12T03:25:15.141Z,92.00
2023-02-12T03:30:17.498Z,93.30
2023-02-12T03:35:34.480Z,93.60
2023-02-12T03:40:43.224Z,94.80
2023-02-12T03:45:50.410Z,92.70
2023-02-12T03:51:10.895Z,90.80
2023-02-12T03:56:25.434Z,91.10
2023-02-12T04:01:28.857Z,92.30
2023-02-12T04:06:30.931Z,92.20
2023-02-12T04:12:14.680Z,91.20
2023-02-12T04:17:48.387Z,92.60
2023-02-12T04:23:34.782Z,93.70
2023-02-12T04:29:04.219Z,94.10
2023-02-12T04:34:24.850Z,95.30
2023-02-12T04:39:32.853Z,95.30
2023-02-12T04:44:44.015Z,95.00
2023-02-12T04:49:46.100Z,91.80
2023-02-12T04:54:48.137Z,91.00
2023-02-12T04:59:50.206Z,90.00
2023-02-12T05:04:52.472Z,87.70
2023-02-12T05:09:54.966Z,92.30
2023-02-12T05:14:58.414Z,90.60
2023-02-12T05:20:00.779Z,88.40
2023-02-12T05:25:03.353Z,87.00
2023-02-12T05:30:06.364Z,91.50
2023-02-12T05:35:08.979Z,88.20
2023-02-12T05:40:11.835Z,88.90
2023-02-12T05:45:14.321Z,87.50
2023-02-12T05:50:16.758Z,92.30
2023-02-12T05:55:18.807Z,88.80
2023-02-12T06:00:21.559Z,90.00
2023-02-12T06:05:23.623Z,93.90
2023-02-12T06:10:25.816Z,91.20
2023-02-12T06:15:27.850Z,90.70
2023-02-12T06:20:30.313Z,93.00
2023-02-12T06:25:32.372Z,93.40
2023-02-12T06:30:35.350Z,90.70
2023-02-12T06:35:38.068Z,90.70
2023-02-12T06:40:40.233Z,91.00
2023-02-12T06:45:42.490Z,92.80
2023-02-12T06:50:44.819Z,91.20
2023-02-12T06:55:46.935Z,89.80
2023-02-12T07:00:48.995Z,90.40
2023-02-12T07:05:50.990Z,90.70
2023-02-12T07:10:52.983Z,90.10
2023-02-12T07:15:55.484Z,90.00
2023-02-12T07:20:58.032Z,89.30
2023-02-12T07:26:12.080Z,87.20
2023-02-12T07:31:18.748Z,89.80
2023-02-12T07:36:21.611Z,87.80
2023-02-12T07:41:30.832Z,85.30
2023-02-12T07:46:43.773Z,87.10
2023-02-12T07:51:48.139Z,87.00
2023-02-12T07:56:51.006Z,86.70
2023-02-12T08:01:54.168Z,91.50
2023-02-12T08:06:57.163Z,88.10
2023-02-12T08:11:59.678Z,85.10
2023-02-12T08:17:01.988Z,87.50
2023-02-12T08:22:04.645Z,85.00
2023-02-12T08:27:06.829Z,85.10
2023-02-12T08:32:14.146Z,86.30
2023-02-12T08:37:19.237Z,86.40
2023-02-12T08:42:21.268Z,85.90
2023-02-12T08:47:23.266Z,86.10
2023-02-12T08:52:25.409Z,86.40
2023-02-12T08:57:27.513Z,88.90
2023-02-12T09:02:29.569Z,82.50
2023-02-12T09:07:31.668Z,82.80
2023-02-12T09:12:33.647Z,87.60
2023-02-12T09:17:35.983Z,90.00
2023-02-12T09:22:38.822Z,88.60
2023-02-12T09:27:41.007Z,92.00
2023-02-12T09:32:43.407Z,87.30
2023-02-12T09:37:45.776Z,84.60
2023-02-12T09:43:06.554Z,85.70
2023-02-12T09:48:32.988Z,85.60
2023-02-12T09:53:43.170Z,84.20
2023-02-12T09:58:54.857Z,85.30
2023-02-12T10:03:57.165Z,82.40
2023-02-12T10:09:24.470Z,87.10
2023-02-12T10:14:42.682Z,82.00
2023-02-12T10:20:01.329Z,81.70
2023-02-12T10:25:29.772Z,82.60
2023-02-12T10:30:48.348Z,82.40
2023-02-12T10:35:58.368Z,83.60
2023-02-12T10:41:02.079Z,83.20
2023-02-12T10:46:04.347Z,83.60
2023-02-12T10:51:09.400Z,84.40
2023-02-12T10:56:24.907Z,83.80
2023-02-12T11:01:37.184Z,82.90
2023-02-12T11:06:40.262Z,85.20
2023-02-12T11:11:42.649Z,83.10
2023-02-12T11:16:57.598Z,83.00
2023-02-12T11:22:19.461Z,84.30
2023-02-12T11:27:28.890Z,81.50
2023-02-12T11:32:30.973Z,82.30
2023-02-12T11:37:37.259Z,81.20
2023-02-12T11:42:41.517Z,82.20
2023-02-12T11:47:46.218Z,81.60
2023-02-12T11:52:53.767Z,79.10
2023-02-12T11:58:15.197Z,79.80
2023-02-12T12:03:34.408Z,79.10
2023-02-12T12:08:45.307Z,79.20
2023-02-12T12:14:01.694Z,77.90
2023-02-12T12:19:34.043Z,79.60
2023-02-12T12:24:56.019Z,79.40
2023-02-12T12:30:06.903Z,77.90
2023-02-12T12:35:15.042Z,76.50
2023-02-12T12:40:35.229Z,77.20
2023-02-12T12:45:58.946Z,75.40
2023-02-12T12:51:38.080Z,78.30
2023-02-12T12:57:28.597Z,75.20
2023-02-12T13:13:38.011Z,75.30
2023-02-12T15:28:46.198Z,68.40
2023-02-12T15:33:52.028Z,78.10
2023-02-12T15:39:01.909Z,78.90
2023-02-12T15:44:29.075Z,79.30
2023-02-12T15:49:43.287Z,77.90
2023-02-12T15:54:48.614Z,78.40
2023-02-12T16:00:01.825Z,79.00
2023-02-12T16:05:06.182Z,80.80
2023-02-12T16:10:14.283Z,80.30
2023-02-12T16:15:34.972Z,79.80
2023-02-12T16:20:37.313Z,78.50
2023-02-12T16:25:40.431Z,79.70
2023-02-12T16:30:44.775Z,79.00
2023-02-12T16:36:03.235Z,79.10
2023-02-12T16:41:20.559Z,82.20
2023-02-12T16:46:22.679Z,80.00
2023-02-12T16:51:33.055Z,79.50
2023-02-12T16:56:42.108Z,79.60
2023-02-12T17:07:01.552Z,80.00
2023-02-12T17:12:03.948Z,82.80
2023-02-12T17:17:06.107Z,82.60
2023-02-12T17:22:19.779Z,84.40
2023-02-12T17:27:22.033Z,85.10
2023-02-12T17:32:25.473Z,85.20
2023-02-12T17:37:27.528Z,85.90
2023-02-12T17:42:29.533Z,87.20
2023-02-12T17:47:31.714Z,85.50
2023-02-12T17:52:33.756Z,84.90
2023-02-12T17:57:35.807Z,84.80
2023-02-12T18:02:38.283Z,85.30
2023-02-12T18:07:40.511Z,85.80
2023-02-12T18:12:42.601Z,86.30
2023-02-12T18:17:45.012Z,85.90
2023-02-12T18:22:47.544Z,85.70
2023-02-12T18:27:49.683Z,88.60
2023-02-12T18:32:54.488Z,88.60
2023-02-12T18:37:56.576Z,87.50
2023-02-12T18:42:58.574Z,87.80
2023-02-12T18:48:00.661Z,87.10
2023-02-12T18:53:02.698Z,89.10
2023-02-12T18:58:04.852Z,87.80
2023-02-12T19:03:07.094Z,88.30
2023-02-12T19:08:09.227Z,89.00
2023-02-12T19:13:11.380Z,87.80
2023-02-12T19:18:13.622Z,88.40
2023-02-12T19:23:16.128Z,87.40
2023-02-12T19:28:18.512Z,85.90
2023-02-12T19:33:20.626Z,85.90
2023-02-12T19:38:22.896Z,85.80
2023-02-12T19:43:24.997Z,86.80
2023-02-12T19:48:27.212Z,87.60
2023-02-12T19:53:29.399Z,89.10
2023-02-12T19:58:31.707Z,87.00
2023-02-12T20:03:33.802Z,86.40
2023-02-12T20:08:38.557Z,86.80
2023-02-12T20:13:41.636Z,88.30
2023-02-12T20:18:49.955Z,87.00
2023-02-12T20:23:52.024Z,86.30
2023-02-12T20:28:54.171Z,86.40
2023-02-12T20:34:17.507Z,86.10
2023-02-12T20:39:21.809Z,85.60
2023-02-12T20:44:24.059Z,87.20
2023-02-12T20:49:26.659Z,88.30
2023-02-12T20:54:28.928Z,88.40
2023-02-12T20:59:30.975Z,89.70
2023-02-12T21:04:33.128Z,90.30
2023-02-12T21:09:35.274Z,91.10
2023-02-12T21:14:37.580Z,91.80
2023-02-12T21:19:39.693Z,92.00
2023-02-12T21:24:41.656Z,92.40
2023-02-12T21:29:43.759Z,92.50
2023-02-12T21:34:48.613Z,92.50
2023-02-12T21:39:50.929Z,92.30
2023-02-12T21:44:53.152Z,92.90
2023-02-12T21:49:55.260Z,93.30
2023-02-12T21:54:57.347Z,94.00
2023-02-12T21:59:59.587Z,94.60
2023-02-12T22:05:01.583Z,94.40
2023-02-12T22:10:04.045Z,94.30
2023-02-12T22:15:06.611Z,94.90
2023-02-12T22:20:09.804Z,94.50
2023-02-12T22:25:11.858Z,94.40
2023-02-12T22:30:14.465Z,95.10
2023-02-12T22:35:17.263Z,94.70
2023-02-12T22:40:19.673Z,95.10
2023-02-12T22:45:21.651Z,95.30
2023-02-12T22:50:23.890Z,96.20
2023-02-12T22:55:25.918Z,95.80
2023-02-12T23:00:27.944Z,94.00
2023-02-12T23:05:31.628Z,95.00
2023-02-12T23:10:33.929Z,95.60
2023-02-12T23:15:35.890Z,95.40
2023-02-12T23:20:37.927Z,95.90
2023-02-12T23:25:39.972Z,95.70
2023-02-12T23:30:42.080Z,96.40
2023-02-12T23:35:48.516Z,96.60
2023-02-12T23:40:50.541Z,96.10
2023-02-12T23:45:52.568Z,96.20
2023-02-12T23:50:54.690Z,96.40
2023-02-12T23:55:56.752Z,96.70
